Time;durP1;ratioP1;P1;durP2;ratioP2;P2;SDS_P1;SDS_P2;PMS_P1;PMS_P2;Temp;Humidity;BMP_temperature;BMP_pressure;BME280_temperature;BME280_humidity;BME280_pressure;Samples;Min_cycle;Max_cycle;Signal;HPM_P1;HPM_P2
2023/12/20 00:00:17;;;;;;;0.52;0.13;;;15.00;70.70;;;;;;4999709;28;20137;-82
2023/12/20 00:02:46;;;;;;;0.30;0.30;;;15.00;70.70;;;;;;4993794;28;20093;-82
2023/12/20 00:05:15;;;;;;;0.40;0.40;;;15.00;71.70;;;;;;4972832;28;20043;-81
2023/12/20 00:07:40;;;;;;;0.32;0.20;;;15.00;71.20;;;;;;4984877;28;20076;-82
2023/12/20 00:10:07;;;;;;;0.13;0.13;;;14.90;70.80;;;;;;5006404;28;20512;-82
2023/12/20 00:12:32;;;;;;;0.28;0.20;;;15.00;71.80;;;;;;4987300;28;20137;-81
2023/12/20 00:14:58;;;;;;;0.35;0.20;;;15.00;70.50;;;;;;4965158;28;20660;-81
2023/12/20 00:17:23;;;;;;;0.50;0.30;;;14.90;70.50;;;;;;4972222;28;20029;-81
2023/12/20 00:19:49;;;;;;;0.32;0.20;;;14.90;70.30;;;;;;4996561;28;20038;-81
2023/12/20 00:22:15;;;;;;;0.40;0.30;;;14.90;70.40;;;;;;4988316;28;20557;-81
2023/12/20 00:24:40;;;;;;;0.20;0.10;;;14.90;70.70;;;;;;4970278;28;20472;-81
2023/12/20 00:27:06;;;;;;;0.35;0.20;;;14.90;70.60;;;;;;4975502;28;20042;-81
2023/12/20 00:29:31;;;;;;;1.23;0.30;;;14.90;70.60;;;;;;4989064;28;20046;-81
2023/12/20 00:31:57;;;;;;;0.20;0.20;;;14.90;70.30;;;;;;4981382;28;20137;-81
2023/12/20 00:34:22;;;;;;;0.15;0.13;;;14.90;70.00;;;;;;4978205;28;20042;-82
2023/12/20 00:36:48;;;;;;;0.22;0.20;;;14.90;70.30;;;;;;5005560;28;20081;-82
2023/12/20 00:39:13;;;;;;;0.38;0.20;;;14.90;69.90;;;;;;4996473;28;20097;-81
2023/12/20 00:41:39;;;;;;;0.45;0.20;;;14.90;70.10;;;;;;4968227;28;20042;-80
2023/12/20 00:44:05;;;;;;;0.57;0.30;;;14.90;70.00;;;;;;4995854;28;20034;-80
2023/12/20 00:46:30;;;;;;;0.20;0.17;;;14.90;69.90;;;;;;4991763;28;20408;-80
2023/12/20 00:48:56;;;;;;;0.40;0.20;;;14.90;69.60;;;;;;4997567;28;20636;-80
2023/12/20 00:51:22;;;;;;;0.22;0.17;;;14.90;69.80;;;;;;4974993;28;20092;-81
2023/12/20 00:53:50;;;;;;;0.25;0.20;;;14.90;69.60;;;;;;4971840;28;20049;-81
2023/12/20 00:56:15;;;;;;;0.30;0.20;;;14.90;69.50;;;;;;4990428;28;20219;-80
2023/12/20 00:58:41;;;;;;;0.80;0.32;;;14.90;69.40;;;;;;4966497;28;20516;-80
2023/12/20 01:01:06;;;;;;;0.28;0.10;;;14.80;69.40;;;;;;4994190;28;20050;-81
2023/12/20 01:03:32;;;;;;;0.70;0.30;;;14.80;70.30;;;;;;4998591;28;20040;-81
2023/12/20 01:05:57;;;;;;;0.20;0.20;;;14.80;69.30;;;;;;5003091;28;20197;-81
2023/12/20 01:08:23;;;;;;;0.25;0.20;;;14.80;69.40;;;;;;4994675;28;20559;-80
2023/12/20 01:10:48;;;;;;;0.57;0.40;;;14.90;69.30;;;;;;4997180;28;20063;-81
2023/12/20 01:13:14;;;;;;;0.50;0.40;;;14.80;69.30;;;;;;5013727;28;20037;-80
2023/12/20 01:15:40;;;;;;;0.30;0.15;;;14.90;69.30;;;;;;4997021;28;20129;-80
2023/12/20 01:18:05;;;;;;;0.30;0.20;;;14.90;69.20;;;;;;4997675;28;20060;-82
2023/12/20 01:20:31;;;;;;;0.38;0.30;;;14.80;69.30;;;;;;4984958;28;20048;-81
2023/12/20 01:22:56;;;;;;;0.60;0.20;;;14.80;69.20;;;;;;4975468;28;20045;-81
2023/12/20 01:25:22;;;;;;;0.30;0.30;;;14.90;69.30;;;;;;4959835;28;20104;-82
2023/12/20 01:27:48;;;;;;;0.52;0.30;;;14.90;69.30;;;;;;4991438;28;20042;-81
2023/12/20 01:30:14;;;;;;;0.20;0.20;;;14.80;69.20;;;;;;4988942;28;20463;-81
2023/12/20 01:32:39;;;;;;;0.30;0.20;;;14.80;69.30;;;;;;4978341;28;20038;-81
2023/12/20 01:35:05;;;;;;;1.00;0.35;;;14.90;69.40;;;;;;4975872;28;20076;-81
2023/12/20 01:37:31;;;;;;;0.10;0.10;;;14.80;69.20;;;;;;4992011;28;20062;-81
2023/12/20 01:39:56;;;;;;;0.30;0.20;;;14.80;69.30;;;;;;4989027;28;20077;-81
2023/12/20 01:42:23;;;;;;;0.10;0.10;;;14.80;70.00;;;;;;5020805;28;20041;-81
2023/12/20 01:44:48;;;;;;;0.45;0.40;;;14.80;69.30;;;;;;4992428;28;20046;-81
2023/12/20 01:47:14;;;;;;;0.30;0.30;;;14.80;69.40;;;;;;4979662;28;20590;-81
2023/12/20 01:49:39;;;;;;;0.28;0.28;;;14.80;69.60;;;;;;4981107;28;20043;-81
2023/12/20 01:52:05;;;;;;;0.30;0.15;;;14.80;69.40;;;;;;4980116;28;20065;-80
2023/12/20 01:54:30;;;;;;;0.20;0.20;;;14.80;69.30;;;;;;4994793;28;20096;-81
2023/12/20 01:56:56;;;;;;;0.95;0.20;;;14.80;69.40;;;;;;4974114;28;20129;-81
2023/12/20 01:59:22;;;;;;;2.55;1.15;;;14.80;69.40;;;;;;4982537;28;20155;-81
2023/12/20 02:01:47;;;;;;;0.38;0.30;;;14.80;69.40;;;;;;4970954;28;20045;-81
2023/12/20 02:04:13;;;;;;;1.42;0.20;;;14.80;70.10;;;;;;4970784;28;20066;-81
2023/12/20 02:06:38;;;;;;;0.63;0.40;;;14.80;69.40;;;;;;5007006;28;20042;-81
2023/12/20 02:09:04;;;;;;;0.20;0.10;;;14.80;69.80;;;;;;4963095;28;21054;-81
2023/12/20 02:11:29;;;;;;;0.63;0.30;;;14.80;69.50;;;;;;4964020;28;20042;-81
2023/12/20 02:13:55;;;;;;;0.30;0.22;;;14.80;69.40;;;;;;4978751;28;20041;-82
2023/12/20 02:16:21;;;;;;;0.20;0.20;;;14.80;69.40;;;;;;4976155;28;20089;-82
2023/12/20 02:18:47;;;;;;;0.13;0.10;;;14.80;69.40;;;;;;5004682;28;20030;-82
2023/12/20 02:21:12;;;;;;;0.52;0.20;;;14.80;69.60;;;;;;4958301;28;20038;-82
2023/12/20 02:23:38;;;;;;;0.40;0.22;;;14.80;69.50;;;;;;4995805;28;20054;-82
2023/12/20 02:26:04;;;;;;;0.30;0.30;;;14.70;69.40;;;;;;5013238;28;20107;-82
2023/12/20 02:28:29;;;;;;;0.22;0.20;;;14.80;69.40;;;;;;4976781;28;20534;-82
2023/12/20 02:30:55;;;;;;;0.35;0.10;;;14.70;69.40;;;;;;4989793;28;20039;-82
2023/12/20 02:33:21;;;;;;;0.38;0.30;;;14.70;69.40;;;;;;5006729;28;21992;-81
2023/12/20 02:35:47;;;;;;;0.73;0.20;;;14.70;69.40;;;;;;4968147;28;20141;-81
2023/12/20 02:38:12;;;;;;;0.20;0.20;;;14.70;69.40;;;;;;4981195;28;20033;-81
2023/12/20 02:40:38;;;;;;;0.10;0.10;;;14.80;69.40;;;;;;4998122;28;20089;-82
2023/12/20 02:43:04;;;;;;;0.35;0.20;;;14.70;69.40;;;;;;4996513;28;20054;-81
2023/12/20 02:45:30;;;;;;;0.63;0.40;;;14.70;69.60;;;;;;4993435;28;20054;-81
2023/12/20 02:47:55;;;;;;;0.63;0.52;;;14.70;69.40;;;;;;4981313;28;20075;-81
2023/12/20 02:50:21;;;;;;;0.20;0.20;;;14.70;69.50;;;;;;4983011;28;20053;-82
2023/12/20 02:52:46;;;;;;;0.20;0.20;;;14.70;69.40;;;;;;4982398;28;20118;-81
2023/12/20 02:55:12;;;;;;;0.20;0.20;;;14.80;69.60;;;;;;5001079;28;20534;-81
2023/12/20 02:57:41;;;;;;;0.38;0.35;;;14.70;69.50;;;;;;4980916;28;20148;-83
2023/12/20 03:00:09;;;;;;;0.30;0.20;;;14.70;69.70;;;;;;4998172;28;20041;-83
2023/12/20 03:02:34;;;;;;;0.40;0.20;;;14.70;69.50;;;;;;4981674;28;20053;-83
2023/12/20 03:05:00;;;;;;;0.30;0.20;;;14.70;69.60;;;;;;5016007;28;20034;-84
2023/12/20 03:07:25;;;;;;;0.20;0.20;;;14.80;69.60;;;;;;4982774;28;20108;-84
2023/12/20 03:09:51;;;;;;;0.50;0.30;;;14.70;69.50;;;;;;4996771;28;20045;-84
2023/12/20 03:12:16;;;;;;;0.32;0.28;;;14.70;69.60;;;;;;5008125;28;20044;-83
2023/12/20 03:14:44;;;;;;;0.47;0.30;;;14.70;69.60;;;;;;4998208;28;20515;-84
2023/12/20 03:17:09;;;;;;;0.40;0.10;;;14.70;69.60;;;;;;4985475;28;20081;-83
2023/12/20 03:19:35;;;;;;;0.32;0.20;;;14.70;69.90;;;;;;5012903;28;20061;-83
2023/12/20 03:22:00;;;;;;;0.60;0.20;;;14.70;69.60;;;;;;5016028;28;20538;-83
2023/12/20 03:24:26;;;;;;;0.63;0.40;;;14.70;69.60;;;;;;4998411;28;20192;-83
2023/12/20 03:26:52;;;;;;;0.13;0.10;;;14.70;69.70;;;;;;4995352;28;20591;-83
2023/12/20 03:29:17;;;;;;;0.20;0.10;;;14.70;69.70;;;;;;5001209;28;20042;-82
2023/12/20 03:31:43;;;;;;;0.57;0.30;;;14.70;69.80;;;;;;4977831;28;20083;-82
2023/12/20 03:34:09;;;;;;;1.00;0.20;;;14.70;69.70;;;;;;4998639;28;20042;-83
2023/12/20 03:36:34;;;;;;;0.63;0.40;;;14.70;69.70;;;;;;4999245;28;20051;-82
2023/12/20 03:39:00;;;;;;;0.17;0.10;;;14.70;69.60;;;;;;4989691;28;20522;-82
2023/12/20 03:41:25;;;;;;;0.43;0.17;;;14.70;69.70;;;;;;4994284;28;20034;-84
2023/12/20 03:43:51;;;;;;;0.20;0.10;;;14.70;69.70;;;;;;4976786;28;20127;-84
2023/12/20 03:46:16;;;;;;;0.85;0.20;;;14.70;69.80;;;;;;4990642;28;20051;-83
2023/12/20 03:48:42;;;;;;;0.40;0.20;;;14.70;69.50;;;;;;4994005;28;20046;-83
2023/12/20 03:51:07;;;;;;;0.52;0.30;;;14.70;69.50;;;;;;4985797;28;20080;-83
2023/12/20 03:53:33;;;;;;;0.40;0.40;;;14.70;69.50;;;;;;4990068;28;20045;-84
2023/12/20 03:55:59;;;;;;;0.20;0.15;;;14.70;69.60;;;;;;4981763;28;20053;-84
2023/12/20 03:58:24;;;;;;;0.30;0.20;;;14.70;69.70;;;;;;4980672;28;20593;-83
2023/12/20 04:00:50;;;;;;;0.30;0.20;;;14.70;69.70;;;;;;5006469;28;20135;-82
2023/12/20 04:03:16;;;;;;;0.40;0.20;;;14.70;69.70;;;;;;4993665;28;20045;-82
2023/12/20 04:05:41;;;;;;;0.30;0.20;;;14.70;69.80;;;;;;4985995;28;20428;-84
2023/12/20 04:08:07;;;;;;;0.20;0.13;;;14.70;70.50;;;;;;4980721;28;20092;-84
2023/12/20 04:10:32;;;;;;;0.32;0.20;;;14.70;69.70;;;;;;4989771;28;20041;-82
2023/12/20 04:12:58;;;;;;;0.20;0.20;;;14.70;69.80;;;;;;4980361;28;20512;-83
2023/12/20 04:15:23;;;;;;;0.40;0.30;;;14.70;69.70;;;;;;4978470;28;20196;-82
2023/12/20 04:17:49;;;;;;;0.70;0.32;;;14.70;69.80;;;;;;4997050;28;20158;-82
2023/12/20 04:20:15;;;;;;;0.30;0.20;;;14.60;69.80;;;;;;4982188;28;20882;-83
2023/12/20 04:22:40;;;;;;;0.20;0.20;;;14.60;69.70;;;;;;4975832;28;20038;-83
2023/12/20 04:25:06;;;;;;;0.20;0.10;;;14.70;69.80;;;;;;4994883;28;20045;-83
2023/12/20 04:27:31;;;;;;;0.30;0.20;;;14.70;69.80;;;;;;4993967;28;20408;-84
2023/12/20 04:29:57;;;;;;;0.32;0.20;;;14.70;69.80;;;;;;4981643;28;20050;-82
2023/12/20 04:32:23;;;;;;;0.68;0.20;;;14.70;69.70;;;;;;4997751;28;20073;-82
2023/12/20 04:34:48;;;;;;;0.40;0.20;;;14.60;69.50;;;;;;5010294;28;20375;-80
2023/12/20 04:37:14;;;;;;;0.52;0.10;;;14.70;69.70;;;;;;4976365;28;20048;-81
2023/12/20 04:39:41;;;;;;;1.10;0.17;;;14.70;69.60;;;;;;4991480;28;20054;-81
2023/12/20 04:42:06;;;;;;;0.20;0.20;;;14.70;69.70;;;;;;4995987;28;20044;-81
2023/12/20 04:44:32;;;;;;;0.30;0.20;;;14.60;69.70;;;;;;4975751;28;20034;-80
2023/12/20 04:46:57;;;;;;;0.22;0.22;;;14.70;69.70;;;;;;4966204;28;20034;-81
2023/12/20 04:49:23;;;;;;;0.47;0.40;;;14.60;69.70;;;;;;4976158;28;20042;-81
2023/12/20 04:51:49;;;;;;;0.30;0.10;;;14.70;69.80;;;;;;4975378;28;20049;-81
2023/12/20 04:54:14;;;;;;;0.60;0.22;;;14.60;69.60;;;;;;4988754;28;20036;-82
2023/12/20 04:56:40;;;;;;;0.55;0.30;;;14.60;69.60;;;;;;4989843;28;20467;-81
2023/12/20 04:59:05;;;;;;;0.28;0.28;;;14.60;69.80;;;;;;4981712;28;20457;-81
2023/12/20 05:01:31;;;;;;;0.57;0.10;;;14.60;70.20;;;;;;4990787;28;20042;-81
2023/12/20 05:03:56;;;;;;;0.52;0.20;;;14.60;69.70;;;;;;4988143;28;20662;-83
2023/12/20 05:06:22;;;;;;;0.10;0.10;;;14.60;69.80;;;;;;4987425;28;20054;-82
2023/12/20 05:08:48;;;;;;;0.20;0.20;;;14.60;69.70;;;;;;5017873;28;20047;-82
2023/12/20 05:11:15;;;;;;;0.30;0.20;;;14.60;69.80;;;;;;4981278;28;20546;-84
2023/12/20 05:13:40;;;;;;;0.25;0.20;;;14.60;69.70;;;;;;4988163;28;20057;-83
2023/12/20 05:16:06;;;;;;;0.45;0.40;;;14.60;69.90;;;;;;4999681;28;20042;-83
2023/12/20 05:18:31;;;;;;;0.22;0.20;;;14.60;69.70;;;;;;5000524;28;20034;-84
2023/12/20 05:20:57;;;;;;;0.60;0.30;;;14.60;69.80;;;;;;4988661;28;20448;-83
2023/12/20 05:23:23;;;;;;;0.20;0.15;;;14.60;70.00;;;;;;4971735;28;20409;-83
2023/12/20 05:25:48;;;;;;;0.32;0.20;;;14.60;69.80;;;;;;4976181;28;20416;-83
2023/12/20 05:28:15;;;;;;;1.02;0.40;;;14.60;69.90;;;;;;4984769;28;20136;-84
2023/12/20 05:30:40;;;;;;;0.10;0.10;;;14.60;69.90;;;;;;4971736;28;20054;-83
2023/12/20 05:33:06;;;;;;;0.52;0.30;;;14.60;69.80;;;;;;4969252;28;20037;-83
2023/12/20 05:35:31;;;;;;;0.40;0.20;;;14.60;69.70;;;;;;4972315;28;20516;-82
2023/12/20 05:37:57;;;;;;;0.20;0.10;;;14.60;69.70;;;;;;4992209;28;20044;-82
2023/12/20 05:40:22;;;;;;;0.20;0.10;;;14.60;69.80;;;;;;4987358;28;20133;-82
2023/12/20 05:42:48;;;;;;;0.10;0.10;;;14.60;69.90;;;;;;4958799;28;20417;-82
2023/12/20 05:45:14;;;;;;;1.35;0.80;;;14.60;69.90;;;;;;4993105;28;20388;-82
2023/12/20 05:47:40;;;;;;;0.28;0.17;;;14.60;69.90;;;;;;4968251;28;20134;-82
2023/12/20 05:50:06;;;;;;;0.10;0.10;;;14.60;69.90;;;;;;4962321;28;20117;-82
2023/12/20 05:52:31;;;;;;;0.40;0.30;;;14.60;70.00;;;;;;4970567;28;20062;-81
2023/12/20 05:55:00;;;;;;;0.40;0.17;;;14.60;69.80;;;;;;4968466;28;20046;-82
2023/12/20 05:57:26;;;;;;;0.50;0.20;;;14.60;69.80;;;;;;4989728;28;20049;-82
2023/12/20 05:59:52;;;;;;;0.30;0.10;;;14.60;69.90;;;;;;4967278;28;20047;-81
2023/12/20 06:02:18;;;;;;;0.22;0.20;;;14.60;70.00;;;;;;4961779;28;20065;-81
2023/12/20 06:04:43;;;;;;;0.20;0.20;;;14.60;69.70;;;;;;4989506;28;20080;-81
2023/12/20 06:07:11;;;;;;;0.40;0.20;;;14.60;69.80;;;;;;4989926;28;20046;-83
2023/12/20 06:09:37;;;;;;;0.28;0.20;;;14.60;69.70;;;;;;4959042;28;20104;-83
2023/12/20 06:12:03;;;;;;;0.10;0.10;;;14.60;70.00;;;;;;4980142;28;20049;-83
2023/12/20 06:14:30;;;;;;;0.43;0.20;;;14.60;69.70;;;;;;5006388;28;20045;-81
2023/12/20 06:16:56;;;;;;;0.20;0.20;;;14.60;69.80;;;;;;4976390;28;20044;-81
2023/12/20 06:19:21;;;;;;;0.20;0.20;;;14.50;69.80;;;;;;4993668;28;20415;-81
2023/12/20 06:21:47;;;;;;;0.38;0.20;;;14.60;69.90;;;;;;4992631;28;20038;-84
2023/12/20 06:24:13;;;;;;;0.20;0.17;;;14.60;69.90;;;;;;4978873;28;20034;-83
2023/12/20 06:26:39;;;;;;;0.30;0.30;;;14.50;69.80;;;;;;4989311;28;20042;-84
2023/12/20 06:29:04;;;;;;;0.52;0.13;;;14.60;69.90;;;;;;4989831;28;20091;-84
2023/12/20 06:31:32;;;;;;;0.30;0.20;;;14.60;69.80;;;;;;4984019;28;20034;-82
2023/12/20 06:33:59;;;;;;;0.75;0.50;;;14.50;70.10;;;;;;4990669;28;20061;-83
2023/12/20 06:36:26;;;;;;;0.10;0.10;;;14.60;70.10;;;;;;5008532;28;20041;-84
2023/12/20 06:38:52;;;;;;;1.10;0.22;;;14.50;69.80;;;;;;5024568;28;20062;-84
2023/12/20 06:41:18;;;;;;;0.30;0.20;;;14.50;69.90;;;;;;4958716;28;20133;-84
2023/12/20 06:43:43;;;;;;;0.17;0.17;;;14.60;70.00;;;;;;4960264;28;20527;-83
2023/12/20 06:46:09;;;;;;;0.22;0.13;;;14.50;69.80;;;;;;4975719;28;20728;-83
2023/12/20 06:48:35;;;;;;;0.43;0.20;;;14.60;69.80;;;;;;5000037;28;20038;-83
2023/12/20 06:51:02;;;;;;;0.20;0.10;;;14.50;69.70;;;;;;4984312;28;20092;-83
2023/12/20 06:53:27;;;;;;;0.30;0.10;;;14.50;69.80;;;;;;4978111;28;20034;-83
2023/12/20 06:55:53;;;;;;;0.73;0.10;;;14.50;70.00;;;;;;5003618;28;20373;-84
2023/12/20 06:58:19;;;;;;;0.50;0.30;;;14.50;69.80;;;;;;4978076;28;20523;-82
2023/12/20 07:00:44;;;;;;;0.20;0.10;;;14.50;69.90;;;;;;5005621;28;20035;-82
2023/12/20 07:03:10;;;;;;;0.22;0.20;;;14.50;69.90;;;;;;4989025;28;20039;-82
2023/12/20 07:05:35;;;;;;;0.38;0.20;;;14.50;69.80;;;;;;4997755;28;20385;-83
2023/12/20 07:08:01;;;;;;;0.15;0.15;;;14.50;70.00;;;;;;4999072;28;20050;-85
2023/12/20 07:10:26;;;;;;;0.17;0.17;;;14.50;69.80;;;;;;4999542;28;20614;-85
2023/12/20 07:12:54;;;;;;;0.40;0.17;;;14.50;69.90;;;;;;4985995;28;20054;-85
2023/12/20 07:15:21;;;;;;;0.20;0.10;;;14.50;69.90;;;;;;4988735;28;20043;-85
2023/12/20 07:17:46;;;;;;;0.10;0.10;;;14.50;69.90;;;;;;4962956;28;20141;-81
2023/12/20 07:20:12;;;;;;;0.30;0.10;;;14.50;70.10;;;;;;4639049;28;9999615;-84
2023/12/20 07:22:37;;;;;;;0.40;0.30;;;14.60;69.80;;;;;;4974372;28;20494;-84
2023/12/20 07:25:03;;;;;;;0.38;0.38;;;14.60;70.00;;;;;;4972377;28;20500;-84
2023/12/20 07:27:29;;;;;;;0.40;0.20;;;14.60;69.90;;;;;;4974042;28;20114;-84
2023/12/20 07:29:55;;;;;;;0.43;0.28;;;14.60;69.80;;;;;;4988161;28;20026;-85
2023/12/20 07:32:20;;;;;;;0.50;0.30;;;14.60;70.10;;;;;;4975904;28;20037;-86
2023/12/20 07:34:46;;;;;;;0.38;0.32;;;14.60;69.90;;;;;;5000105;28;20037;-85
2023/12/20 07:37:11;;;;;;;0.35;0.25;;;14.60;70.10;;;;;;4993346;28;20069;-84
2023/12/20 07:39:40;;;;;;;0.17;0.15;;;14.60;70.00;;;;;;4992195;28;20396;-84
2023/12/20 07:42:09;;;;;;;1.17;0.20;;;14.60;70.70;;;;;;4983377;28;20109;-84
2023/12/20 07:44:38;;;;;;;0.38;0.35;;;14.60;70.20;;;;;;4997733;28;20037;-84
2023/12/20 07:47:04;;;;;;;0.52;0.30;;;14.60;70.10;;;;;;4978593;28;20041;-85
2023/12/20 07:49:30;;;;;;;0.35;0.25;;;14.60;70.10;;;;;;4989834;28;20478;-88
2023/12/20 07:52:04;;;;;;;0.30;0.20;;;14.60;69.90;;;;;;5002410;28;20404;-86
2023/12/20 07:54:35;;;;;;;0.30;0.22;;;14.60;69.60;;;;;;5006904;28;20128;-86
2023/12/20 07:57:05;;;;;;;1.55;0.20;;;14.60;69.90;;;;;;4982308;28;20057;-86
2023/12/20 07:59:51;;;;;;;0.60;0.30;;;14.60;70.00;;;;;;4991074;28;20546;-86
2023/12/20 08:02:25;;;;;;;2.10;0.30;;;14.60;70.10;;;;;;4913682;28;20518;-86
2023/12/20 08:04:51;;;;;;;0.40;0.10;;;14.60;70.10;;;;;;4962413;28;20029;-86
2023/12/20 08:07:16;;;;;;;0.68;0.30;;;14.60;70.20;;;;;;4983700;28;20188;-86
2023/12/20 08:09:44;;;;;;;3.05;0.32;;;14.60;71.00;;;;;;4993419;28;20124;-86
2023/12/20 08:12:11;;;;;;;0.50;0.47;;;14.60;69.90;;;;;;4958853;28;20413;-86
2023/12/20 08:14:36;;;;;;;0.32;0.28;;;14.60;69.90;;;;;;4968071;28;20053;-86
2023/12/20 08:17:02;;;;;;;2.90;0.20;;;14.60;69.80;;;;;;4988266;28;20041;-86
2023/12/20 08:19:27;;;;;;;0.17;0.15;;;14.60;69.80;;;;;;4992943;28;20497;-86
2023/12/20 08:21:53;;;;;;;0.85;0.30;;;14.60;70.00;;;;;;4995005;28;20035;-86
2023/12/20 08:24:18;;;;;;;2.05;0.55;;;14.60;70.10;;;;;;4982352;28;20504;-86
2023/12/20 08:26:46;;;;;;;0.40;0.20;;;14.60;69.80;;;;;;4988923;28;20112;-86
2023/12/20 08:29:13;;;;;;;0.50;0.30;;;14.60;70.00;;;;;;4994341;28;20046;-86
2023/12/20 08:31:38;;;;;;;0.47;0.22;;;14.60;70.00;;;;;;4985860;28;20136;-86
2023/12/20 08:34:04;;;;;;;3.60;0.40;;;14.60;70.40;;;;;;4991584;28;20057;-86
2023/12/20 08:36:30;;;;;;;0.68;0.22;;;14.60;70.50;;;;;;4994238;28;20108;-86
2023/12/20 08:38:55;;;;;;;0.60;0.30;;;14.50;70.10;;;;;;4968463;28;20061;-86
2023/12/20 08:41:21;;;;;;;0.30;0.20;;;14.60;70.80;;;;;;4951492;28;20126;-87
2023/12/20 08:43:46;;;;;;;0.45;0.30;;;14.60;70.70;;;;;;4993325;28;20065;-86
2023/12/20 08:46:13;;;;;;;0.80;0.45;;;14.50;71.10;;;;;;4994603;28;20043;-86
2023/12/20 08:48:38;;;;;;;1.05;0.40;;;14.60;70.50;;;;;;4971920;28;20173;-86
2023/12/20 08:51:06;;;;;;;0.98;0.32;;;14.60;70.70;;;;;;4978406;28;20077;-86
2023/12/20 08:53:33;;;;;;;0.50;0.47;;;14.60;70.70;;;;;;4987908;28;20589;-86
2023/12/20 08:56:01;;;;;;;1.55;0.30;;;14.60;70.40;;;;;;4995356;28;20050;-86
2023/12/20 08:58:27;;;;;;;0.82;0.20;;;14.60;70.90;;;;;;4975445;28;20045;-86
2023/12/20 09:00:52;;;;;;;0.52;0.22;;;14.60;71.10;;;;;;4996585;28;20054;-86
2023/12/20 09:03:18;;;;;;;0.47;0.30;;;14.50;71.70;;;;;;4993576;28;20475;-85
2023/12/20 09:05:43;;;;;;;0.15;0.15;;;14.60;70.80;;;;;;4972499;28;20053;-86
2023/12/20 09:08:10;;;;;;;0.20;0.20;;;14.60;71.00;;;;;;4995712;28;20057;-85
2023/12/20 09:10:36;;;;;;;0.70;0.38;;;14.60;71.20;;;;;;4984645;28;20057;-85
2023/12/20 09:13:02;;;;;;;0.75;0.40;;;14.60;70.90;;;;;;4985265;28;20042;-85
2023/12/20 09:15:28;;;;;;;1.13;0.30;;;14.60;71.00;;;;;;4962098;28;20049;-85
2023/12/20 09:17:54;;;;;;;0.50;0.30;;;14.60;71.10;;;;;;4977574;28;20061;-86
2023/12/20 09:20:20;;;;;;;0.30;0.20;;;14.60;70.90;;;;;;4990014;28;20043;-86
2023/12/20 09:22:45;;;;;;;1.20;0.25;;;14.60;71.20;;;;;;4991801;28;20050;-85
2023/12/20 09:25:12;;;;;;;0.57;0.38;;;14.60;70.90;;;;;;4992551;28;20166;-86
2023/12/20 09:27:38;;;;;;;0.43;0.30;;;14.60;71.10;;;;;;4987954;28;20054;-86
2023/12/20 09:30:05;;;;;;;2.33;0.10;;;14.60;71.00;;;;;;4989414;28;20046;-86
2023/12/20 09:32:31;;;;;;;0.47;0.45;;;14.60;71.20;;;;;;4993955;28;20108;-86
2023/12/20 09:34:57;;;;;;;0.20;0.20;;;14.60;70.90;;;;;;4986909;28;20500;-85
2023/12/20 09:37:25;;;;;;;0.25;0.10;;;14.60;71.30;;;;;;4993195;28;20574;-85
2023/12/20 09:39:51;;;;;;;0.20;0.20;;;14.60;71.10;;;;;;4987325;28;20065;-85
2023/12/20 09:42:22;;;;;;;0.60;0.40;;;14.60;71.00;;;;;;4993028;28;20058;-86
2023/12/20 09:44:48;;;;;;;0.82;0.43;;;14.60;70.80;;;;;;5001037;28;20049;-85
2023/12/20 09:47:13;;;;;;;0.47;0.40;;;14.60;70.40;;;;;;4994206;28;20444;-86
2023/12/20 09:49:39;;;;;;;0.10;0.10;;;14.60;70.20;;;;;;4997198;28;20129;-86
2023/12/20 09:52:05;;;;;;;0.73;0.20;;;14.70;69.60;;;;;;4988346;28;20515;-85
2023/12/20 09:54:30;;;;;;;0.40;0.30;;;14.80;69.50;;;;;;4982294;28;20100;-85
2023/12/20 09:56:56;;;;;;;0.40;0.15;;;14.80;69.70;;;;;;5000652;28;20493;-85
2023/12/20 09:59:22;;;;;;;0.30;0.20;;;14.80;69.40;;;;;;4995840;28;20042;-85
2023/12/20 10:01:48;;;;;;;0.20;0.13;;;14.80;69.30;;;;;;4992346;28;20050;-85
2023/12/20 10:04:14;;;;;;;0.20;0.20;;;14.90;69.20;;;;;;4997141;28;20047;-85
2023/12/20 10:06:40;;;;;;;0.20;0.15;;;14.90;69.60;;;;;;4995107;28;20096;-85
2023/12/20 10:09:06;;;;;;;0.82;0.40;;;14.80;69.40;;;;;;4999963;28;20634;-84
2023/12/20 10:11:31;;;;;;;0.32;0.32;;;14.80;69.40;;;;;;4985941;28;20051;-85
2023/12/20 10:14:02;;;;;;;0.30;0.20;;;14.80;69.30;;;;;;4996141;28;20049;-85
2023/12/20 10:16:29;;;;;;;1.08;0.13;;;14.80;69.30;;;;;;4998204;28;20046;-85
2023/12/20 10:18:54;;;;;;;0.30;0.20;;;14.90;69.20;;;;;;4986643;28;20046;-85
2023/12/20 10:21:20;;;;;;;0.35;0.30;;;14.90;69.10;;;;;;4997524;28;20417;-86
2023/12/20 10:23:46;;;;;;;0.80;0.20;;;14.90;69.10;;;;;;5001380;28;20455;-85
2023/12/20 10:26:27;;;;;;;1.10;0.20;;;14.90;69.20;;;;;;4998602;28;20053;-85
2023/12/20 10:28:53;;;;;;;0.55;0.20;;;14.90;69.00;;;;;;4978579;28;20113;-85
2023/12/20 10:31:30;;;;;;;0.90;0.20;;;14.90;69.00;;;;;;4987315;28;20119;-85
2023/12/20 10:33:59;;;;;;;0.17;0.13;;;15.00;68.90;;;;;;4975645;28;20041;-85
2023/12/20 10:36:29;;;;;;;2.00;0.30;;;15.00;69.00;;;;;;4974098;28;20310;-85
2023/12/20 10:38:57;;;;;;;0.40;0.20;;;15.00;69.00;;;;;;4992486;28;20057;-85
2023/12/20 10:41:30;;;;;;;0.45;0.17;;;15.00;68.80;;;;;;4994533;28;20061;-85
2023/12/20 10:44:04;;;;;;;1.38;0.22;;;15.00;68.90;;;;;;4994101;28;20045;-85
2023/12/20 10:46:30;;;;;;;0.22;0.22;;;15.00;69.00;;;;;;4988259;28;20049;-85
2023/12/20 10:48:56;;;;;;;0.30;0.30;;;15.10;69.00;;;;;;4996956;28;20039;-85
2023/12/20 10:51:22;;;;;;;0.20;0.10;;;15.00;69.00;;;;;;4989404;28;20544;-84
2023/12/20 10:53:50;;;;;;;1.17;0.30;;;15.10;68.90;;;;;;5001055;28;20045;-85
2023/12/20 10:56:19;;;;;;;0.20;0.20;;;15.10;68.90;;;;;;5017938;28;20483;-85
2023/12/20 10:58:46;;;;;;;0.85;0.30;;;15.10;68.90;;;;;;5018815;28;20049;-85
2023/12/20 11:01:15;;;;;;;0.63;0.40;;;15.10;68.90;;;;;;5001070;28;20046;-85
2023/12/20 11:03:50;;;;;;;0.35;0.20;;;15.10;68.80;;;;;;4986076;28;20046;-85
2023/12/20 11:06:19;;;;;;;0.50;0.30;;;15.10;69.00;;;;;;5005250;28;21512;-85
2023/12/20 11:08:51;;;;;;;0.30;0.22;;;15.10;68.90;;;;;;5005949;28;20055;-85
2023/12/20 11:11:21;;;;;;;0.50;0.20;;;15.10;68.90;;;;;;4989030;28;20065;-85
2023/12/20 11:14:20;;;;;;;0.40;0.20;;;15.10;69.00;;;;;;5015877;28;20125;-85
2023/12/20 11:16:45;;;;;;;0.40;0.30;;;15.10;69.00;;;;;;4968527;28;20038;-85
2023/12/20 11:19:13;;;;;;;0.40;0.35;;;15.10;68.90;;;;;;4998610;28;20041;-85
2023/12/20 11:21:40;;;;;;;1.00;0.30;;;15.00;68.80;;;;;;5000592;28;20042;-85
2023/12/20 11:24:05;;;;;;;0.73;0.30;;;15.10;68.90;;;;;;5015129;28;20495;-85
2023/12/20 11:26:31;;;;;;;1.15;0.17;;;15.10;69.00;;;;;;5002054;28;20045;-85
2023/12/20 11:29:32;;;;;;;0.52;0.30;;;15.20;68.90;;;;;;4995980;28;20041;-85
2023/12/20 11:32:00;;;;;;;0.20;0.20;;;15.10;68.80;;;;;;4998886;28;20045;-85
2023/12/20 11:34:33;;;;;;;0.75;0.30;;;15.10;68.70;;;;;;4998789;28;20049;-85
2023/12/20 11:37:02;;;;;;;0.60;0.35;;;15.20;68.80;;;;;;4991217;28;20037;-84
2023/12/20 11:39:28;;;;;;;1.42;0.40;;;15.20;68.80;;;;;;5017940;28;20046;-85
2023/12/20 11:41:59;;;;;;;0.60;0.40;;;15.10;68.80;;;;;;5017609;28;20040;-85
2023/12/20 11:44:26;;;;;;;0.30;0.22;;;15.10;68.80;;;;;;4997008;28;20045;-84
2023/12/20 11:46:51;;;;;;;0.30;0.28;;;15.20;68.80;;;;;;5002551;28;20043;-85
2023/12/20 11:49:17;;;;;;;0.75;0.25;;;15.20;68.60;;;;;;4994344;28;20050;-85
2023/12/20 11:51:43;;;;;;;0.30;0.25;;;15.20;68.60;;;;;;4995543;28;20091;-85
2023/12/20 11:54:11;;;;;;;0.75;0.30;;;15.20;68.80;;;;;;5005204;28;20136;-85
2023/12/20 11:56:36;;;;;;;0.40;0.17;;;15.20;69.50;;;;;;4998192;28;20044;-85
2023/12/20 11:59:02;;;;;;;0.60;0.40;;;15.30;68.70;;;;;;4987375;28;20034;-85
2023/12/20 12:01:27;;;;;;;0.45;0.30;;;15.30;68.60;;;;;;4996917;28;20054;-85
2023/12/20 12:04:06;;;;;;;0.30;0.20;;;15.30;68.60;;;;;;4999420;28;20041;-85
2023/12/20 12:06:32;;;;;;;0.75;0.30;;;15.30;68.60;;;;;;4994589;28;20033;-85
2023/12/20 12:08:58;;;;;;;0.82;0.45;;;15.30;68.60;;;;;;4991433;28;20042;-85
2023/12/20 12:11:23;;;;;;;0.28;0.28;;;15.30;68.60;;;;;;5016505;28;20033;-85
2023/12/20 12:13:49;;;;;;;0.32;0.20;;;15.30;68.60;;;;;;4999068;28;20034;-84
2023/12/20 12:16:20;;;;;;;0.50;0.30;;;15.30;68.60;;;;;;4994014;28;20523;-85
2023/12/20 12:18:46;;;;;;;0.40;0.30;;;15.30;68.60;;;;;;5004637;28;20038;-85
2023/12/20 12:21:20;;;;;;;0.40;0.28;;;15.30;68.60;;;;;;5013584;28;20087;-84
2023/12/20 12:23:45;;;;;;;;;;;15.30;68.60;;;;;;4980064;28;20488;-84
2023/12/20 12:26:11;;;;;;;0.40;0.40;;;15.30;68.60;;;;;;4992821;28;19934;-84
2023/12/20 12:28:39;;;;;;;0.80;0.22;;;15.30;68.60;;;;;;4988725;28;20458;-84
2023/12/20 12:31:05;;;;;;;0.35;0.30;;;15.30;68.60;;;;;;4971608;28;20496;-84
2023/12/20 12:33:30;;;;;;;0.90;0.32;;;15.30;68.50;;;;;;4990102;28;20037;-84
2023/12/20 12:35:56;;;;;;;0.40;0.30;;;15.30;68.50;;;;;;5000032;28;20029;-85
2023/12/20 12:38:22;;;;;;;0.22;0.22;;;15.30;68.60;;;;;;4995698;28;20500;-84
2023/12/20 12:40:48;;;;;;;0.38;0.30;;;15.30;68.60;;;;;;4977110;28;20124;-84
2023/12/20 12:43:13;;;;;;;0.40;0.30;;;15.30;68.60;;;;;;4975959;28;20584;-84